Time;durP1;ratioP1;P1;durP2;ratioP2;P2;SDS_P1;SDS_P2;PMS_P1;PMS_P2;Temp;Humidity;BMP_temperature;BMP_pressure;BME280_temperature;BME280_humidity;BME280_pressure;Samples;Min_cycle;Max_cycle;Signal;HPM_P1;HPM_P2
2023/12/07 00:01:20;;;;;;;26.85;10.25;;;1.60;99.90;;;;;;5067451;28;20013;-74
2023/12/07 00:03:46;;;;;;;38.63;11.25;;;1.60;99.90;;;;;;5067737;28;20036;-73
2023/12/07 00:06:11;;;;;;;17.35;10.02;;;1.60;99.90;;;;;;5067257;28;20111;-74
2023/12/07 00:08:37;;;;;;;19.27;10.45;;;1.60;99.90;;;;;;5067526;28;20481;-74
2023/12/07 00:11:04;;;;;;;38.17;10.52;;;1.60;99.90;;;;;;5066910;28;20028;-73
2023/12/07 00:13:29;;;;;;;26.20;10.95;;;1.70;99.90;;;;;;5067446;28;20020;-73
2023/12/07 00:15:55;;;;;;;22.23;11.02;;;1.60;99.90;;;;;;5059369;28;20032;-73
2023/12/07 00:18:21;;;;;;;21.30;10.23;;;1.60;99.90;;;;;;5067451;28;20372;-73
2023/12/07 00:20:46;;;;;;;29.50;11.07;;;1.60;99.90;;;;;;5067343;28;20055;-73
2023/12/07 00:23:12;;;;;;;17.63;10.75;;;1.60;99.90;;;;;;5067621;28;20015;-73
2023/12/07 00:25:38;;;;;;;16.75;10.85;;;1.60;99.90;;;;;;5067089;28;20024;-73
2023/12/07 00:28:05;;;;;;;17.52;10.07;;;1.60;99.90;;;;;;5067221;28;20795;-73
2023/12/07 00:30:30;;;;;;;19.98;11.68;;;1.60;99.90;;;;;;5065563;28;20056;-73
2023/12/07 00:32:56;;;;;;;19.60;10.38;;;1.60;99.90;;;;;;5066912;28;20071;-73
2023/12/07 00:35:22;;;;;;;18.70;10.50;;;1.60;99.90;;;;;;5067073;28;20053;-73
2023/12/07 00:37:48;;;;;;;22.48;11.15;;;1.50;99.90;;;;;;5066782;28;20066;-73
2023/12/07 00:40:14;;;;;;;42.38;10.98;;;1.50;99.90;;;;;;5056808;28;20117;-74
2023/12/07 00:42:40;;;;;;;28.90;11.13;;;1.50;99.90;;;;;;5076697;28;20113;-73
2023/12/07 00:45:06;;;;;;;22.42;11.80;;;1.50;99.90;;;;;;5081341;28;20113;-73
2023/12/07 00:47:31;;;;;;;20.02;11.45;;;1.50;99.90;;;;;;5081146;28;20822;-73
2023/12/07 00:49:57;;;;;;;36.05;12.40;;;1.50;99.90;;;;;;5049214;28;20509;-73
2023/12/07 00:52:23;;;;;;;26.13;12.52;;;1.50;99.90;;;;;;5080619;28;20123;-73
2023/12/07 00:54:48;;;;;;;29.13;12.52;;;1.40;99.90;;;;;;5075080;28;20028;-74
2023/12/07 00:57:14;;;;;;;35.50;11.73;;;1.40;99.90;;;;;;5072175;28;20120;-73
2023/12/07 00:59:39;;;;;;;93.35;13.32;;;1.40;99.90;;;;;;5072679;28;20565;-73
2023/12/07 01:02:06;;;;;;;35.40;11.10;;;1.40;99.90;;;;;;5074062;28;20024;-74
2023/12/07 01:04:32;;;;;;;54.97;11.57;;;1.30;99.90;;;;;;5052912;28;20675;-73
2023/12/07 01:06:58;;;;;;;43.65;12.15;;;1.30;99.90;;;;;;5075955;28;20027;-73
2023/12/07 01:09:25;;;;;;;41.45;12.70;;;1.20;99.90;;;;;;5080840;28;20024;-73
2023/12/07 01:11:53;;;;;;;28.45;11.27;;;1.20;99.90;;;;;;5074677;28;20032;-73
2023/12/07 01:14:19;;;;;;;26.88;11.45;;;1.20;99.90;;;;;;5072652;28;20025;-74
2023/12/07 01:16:45;;;;;;;71.03;11.98;;;1.20;99.90;;;;;;5078956;28;20486;-73
2023/12/07 01:19:14;;;;;;;35.15;10.90;;;1.20;99.90;;;;;;5066257;28;20094;-73
2023/12/07 01:21:42;;;;;;;49.25;10.82;;;1.10;99.90;;;;;;5066021;28;20486;-74
2023/12/07 01:24:08;;;;;;;34.33;11.02;;;1.10;99.90;;;;;;5056614;28;20020;-72
2023/12/07 01:26:34;;;;;;;68.00;12.07;;;1.10;99.90;;;;;;5080306;28;20478;-72
2023/12/07 01:29:00;;;;;;;28.17;10.82;;;1.00;99.90;;;;;;5076175;28;20073;-71
2023/12/07 01:31:25;;;;;;;33.03;10.95;;;1.00;99.90;;;;;;5070321;28;20536;-72
2023/12/07 01:33:51;;;;;;;27.38;10.73;;;1.00;99.90;;;;;;5066532;28;20103;-71
2023/12/07 01:36:17;;;;;;;61.38;11.15;;;1.00;99.90;;;;;;5047976;28;20031;-72
2023/12/07 01:38:43;;;;;;;51.40;9.23;;;1.00;99.90;;;;;;5057007;28;20033;-72
2023/12/07 01:41:09;;;;;;;35.03;8.68;;;0.90;99.90;;;;;;5077711;28;20068;-72
2023/12/07 01:43:35;;;;;;;37.65;8.90;;;0.80;99.90;;;;;;5072022;28;20497;-72
2023/12/07 01:46:01;;;;;;;45.17;8.60;;;0.70;99.90;;;;;;5082253;28;20020;-72
2023/12/07 01:48:28;;;;;;;51.42;8.40;;;0.70;99.90;;;;;;5074500;28;20398;-72
2023/12/07 01:50:56;;;;;;;36.38;8.20;;;0.70;99.90;;;;;;5080082;28;20443;-72
2023/12/07 01:53:23;;;;;;;47.08;9.05;;;0.70;99.90;;;;;;5076852;28;20024;-72
2023/12/07 01:55:50;;;;;;;40.72;8.50;;;0.70;99.90;;;;;;5072069;28;20032;-72
2023/12/07 01:58:17;;;;;;;21.35;8.73;;;0.80;99.90;;;;;;5077852;28;20104;-72
2023/12/07 02:00:43;;;;;;;29.85;9.82;;;0.80;99.90;;;;;;5079908;28;20016;-72
2023/12/07 02:03:09;;;;;;;24.98;8.68;;;0.90;99.90;;;;;;5073248;28;20039;-72
2023/12/07 02:05:36;;;;;;;16.88;8.35;;;0.90;99.90;;;;;;5073033;28;20076;-72
2023/12/07 02:08:02;;;;;;;18.20;8.88;;;1.00;99.90;;;;;;5080169;28;20017;-72
2023/12/07 02:10:28;;;;;;;27.48;9.38;;;1.00;99.90;;;;;;5047912;28;20025;-73
2023/12/07 02:12:54;;;;;;;21.75;9.93;;;1.10;99.90;;;;;;5079730;28;20024;-72
2023/12/07 02:15:20;;;;;;;27.90;8.70;;;1.10;99.90;;;;;;5065933;28;20028;-72
2023/12/07 02:18:03;;;;;;;31.10;10.45;;;1.10;99.90;;;;;;5065365;28;20086;-72
2023/12/07 02:20:42;;;;;;;21.23;9.68;;;1.10;99.90;;;;;;5075530;28;20024;-72
2023/12/07 02:23:09;;;;;;;20.95;9.70;;;1.10;99.90;;;;;;5071703;28;20020;-72
2023/12/07 02:25:54;;;;;;;36.55;10.65;;;1.20;99.90;;;;;;5076129;28;20035;-72
2023/12/07 02:28:20;;;;;;;30.83;10.10;;;1.10;99.90;;;;;;5080440;28;20032;-72
2023/12/07 02:30:46;;;;;;;18.65;10.23;;;1.20;99.90;;;;;;5079680;28;20024;-72
2023/12/07 02:33:12;;;;;;;18.50;10.35;;;1.20;99.90;;;;;;5075088;28;20107;-72
2023/12/07 02:35:40;;;;;;;19.73;10.50;;;1.20;99.90;;;;;;5080687;28;20020;-72
2023/12/07 02:38:08;;;;;;;18.83;10.65;;;1.20;99.90;;;;;;5076694;28;20016;-72
2023/12/07 02:40:35;;;;;;;17.35;10.07;;;1.20;99.90;;;;;;5063132;28;20036;-72
2023/12/07 02:43:02;;;;;;;17.77;10.10;;;1.20;99.90;;;;;;5076110;28;20024;-72
2023/12/07 02:45:29;;;;;;;16.25;9.52;;;1.20;99.90;;;;;;5084962;28;20028;-72
2023/12/07 02:47:54;;;;;;;17.35;9.90;;;1.20;99.90;;;;;;5081688;28;20468;-72
2023/12/07 02:50:20;;;;;;;16.73;9.45;;;1.10;99.90;;;;;;5083129;28;20020;-72
2023/12/07 02:52:46;;;;;;;16.67;10.32;;;1.10;99.90;;;;;;5074582;28;20136;-73
2023/12/07 02:55:12;;;;;;;18.80;10.48;;;1.20;99.90;;;;;;5077828;28;20105;-72
2023/12/07 02:57:37;;;;;;;20.05;11.13;;;1.10;99.90;;;;;;5050393;28;20623;-72
2023/12/07 03:00:07;;;;;;;18.65;10.55;;;1.20;99.90;;;;;;5050896;28;20036;-71
2023/12/07 03:02:38;;;;;;;22.20;11.45;;;1.20;99.90;;;;;;5082705;28;20024;-72
2023/12/07 03:05:05;;;;;;;20.33;9.63;;;1.20;99.90;;;;;;5077868;28;20044;-72
2023/12/07 03:07:31;;;;;;;22.48;11.98;;;1.20;99.90;;;;;;5074443;28;20029;-72
2023/12/07 03:09:56;;;;;;;22.75;11.93;;;1.10;99.90;;;;;;5063771;28;20044;-72
2023/12/07 03:12:23;;;;;;;19.73;10.73;;;1.10;99.90;;;;;;5068490;28;20059;-72
2023/12/07 03:14:49;;;;;;;22.33;11.63;;;1.20;99.90;;;;;;5055446;28;20024;-72
2023/12/07 03:17:14;;;;;;;23.25;11.52;;;1.20;99.90;;;;;;5077421;28;20086;-72
2023/12/07 03:19:40;;;;;;;22.95;12.38;;;1.20;99.90;;;;;;5082606;28;20454;-72
2023/12/07 03:22:07;;;;;;;23.45;12.95;;;1.20;99.90;;;;;;5077451;28;20533;-72
2023/12/07 03:24:36;;;;;;;23.88;12.63;;;1.20;99.90;;;;;;5074257;28;20021;-72
2023/12/07 03:27:03;;;;;;;22.13;11.43;;;1.30;99.90;;;;;;5080866;28;20059;-72
2023/12/07 03:29:29;;;;;;;23.15;12.18;;;1.30;99.90;;;;;;5068546;28;20123;-72
2023/12/07 03:31:54;;;;;;;24.23;12.43;;;1.30;99.90;;;;;;5082272;28;20364;-72
2023/12/07 03:34:20;;;;;;;19.00;11.07;;;1.30;99.90;;;;;;5080363;28;20580;-72
2023/12/07 03:36:47;;;;;;;23.33;11.60;;;1.30;99.90;;;;;;5072592;28;20023;-72
2023/12/07 03:39:14;;;;;;;20.23;11.52;;;1.40;99.90;;;;;;5081737;28;20432;-72
2023/12/07 03:41:40;;;;;;;19.05;10.93;;;1.40;99.90;;;;;;5051344;28;20059;-72
2023/12/07 03:44:05;;;;;;;21.00;11.73;;;1.40;99.90;;;;;;5066824;28;20078;-72
2023/12/07 03:46:31;;;;;;;20.02;12.13;;;1.40;99.90;;;;;;5061900;28;20028;-72
2023/12/07 03:48:57;;;;;;;21.10;12.20;;;1.40;99.90;;;;;;5049839;28;20040;-72
2023/12/07 03:51:22;;;;;;;21.02;12.18;;;1.40;99.90;;;;;;5068091;28;20371;-72
2023/12/07 03:53:48;;;;;;;23.65;12.32;;;1.40;99.90;;;;;;5055448;28;20032;-72
2023/12/07 03:56:28;;;;;;;22.00;11.48;;;1.40;99.90;;;;;;5067589;28;20025;-72
2023/12/07 03:58:54;;;;;;;20.60;11.52;;;1.40;99.90;;;;;;5067893;28;20028;-72
2023/12/07 04:01:24;;;;;;;19.27;11.32;;;1.40;99.90;;;;;;5053791;28;20012;-72
2023/12/07 04:03:50;;;;;;;19.08;11.05;;;1.30;99.90;;;;;;5056864;28;20428;-72
2023/12/07 04:06:16;;;;;;;21.70;12.45;;;1.30;99.90;;;;;;5067632;28;20028;-72
2023/12/07 04:08:42;;;;;;;19.17;11.52;;;1.30;99.90;;;;;;5067298;28;20117;-72
2023/12/07 04:11:08;;;;;;;21.25;12.23;;;1.30;99.90;;;;;;5067339;28;20028;-72
2023/12/07 04:13:33;;;;;;;19.23;11.82;;;1.30;99.90;;;;;;5067230;28;20028;-72
2023/12/07 04:15:59;;;;;;;21.23;12.07;;;1.30;99.90;;;;;;5067511;28;20028;-72
2023/12/07 04:18:25;;;;;;;20.92;11.32;;;1.30;99.90;;;;;;5048981;28;20782;-73
2023/12/07 04:20:50;;;;;;;23.00;12.52;;;1.30;99.90;;;;;;5067035;28;20029;-72
2023/12/07 04:23:16;;;;;;;21.10;11.98;;;1.30;99.90;;;;;;5067085;28;20111;-74
2023/12/07 04:25:42;;;;;;;21.77;11.98;;;1.20;99.90;;;;;;5067484;28;20024;-73
2023/12/07 04:28:07;;;;;;;23.02;12.13;;;1.30;99.90;;;;;;5067271;28;20024;-73
2023/12/07 04:30:33;;;;;;;21.35;12.25;;;1.20;99.90;;;;;;5067323;28;20055;-73
2023/12/07 04:32:59;;;;;;;18.38;11.02;;;1.20;99.90;;;;;;5066720;28;20051;-73
2023/12/07 04:35:24;;;;;;;20.70;12.25;;;1.20;99.90;;;;;;5067270;28;20377;-74
2023/12/07 04:37:50;;;;;;;17.48;11.07;;;1.20;99.90;;;;;;5066548;28;20111;-74
2023/12/07 04:40:16;;;;;;;20.88;11.18;;;1.20;99.90;;;;;;5035908;28;20125;-74
2023/12/07 04:42:41;;;;;;;20.48;11.88;;;1.20;99.90;;;;;;5066666;28;20609;-73
2023/12/07 04:45:07;;;;;;;20.77;11.25;;;1.20;99.90;;;;;;5066962;28;20029;-74
2023/12/07 04:47:33;;;;;;;28.70;14.10;;;1.20;99.90;;;;;;5066185;28;20048;-74
2023/12/07 04:49:59;;;;;;;40.55;12.52;;;1.10;99.90;;;;;;5067036;28;20052;-73
2023/12/07 04:52:25;;;;;;;70.10;13.98;;;1.10;99.90;;;;;;5066085;28;20405;-73
2023/12/07 04:54:51;;;;;;;88.45;15.48;;;1.10;99.90;;;;;;5066605;28;20067;-74
2023/12/07 04:57:16;;;;;;;53.83;15.27;;;1.10;99.90;;;;;;5066786;28;20441;-73
2023/12/07 04:59:46;;;;;;;160.00;20.30;;;1.10;99.90;;;;;;5066650;28;20025;-73
2023/12/07 05:02:16;;;;;;;160.52;20.30;;;1.10;99.90;;;;;;5066353;28;20020;-74
2023/12/07 05:04:42;;;;;;;191.63;19.10;;;1.10;99.90;;;;;;5042660;28;20046;-73
2023/12/07 05:07:08;;;;;;;117.85;18.17;;;1.10;99.90;;;;;;5058198;28;20043;-74
2023/12/07 05:09:34;;;;;;;100.88;17.98;;;1.10;99.90;;;;;;5066725;28;20141;-73
2023/12/07 05:12:00;;;;;;;298.08;23.40;;;1.10;99.90;;;;;;5066471;28;20446;-73
2023/12/07 05:14:26;;;;;;;84.78;16.17;;;1.10;99.90;;;;;;5066552;28;20482;-74
2023/12/07 05:16:53;;;;;;;104.57;18.63;;;1.10;99.90;;;;;;5066066;28;20082;-73
2023/12/07 05:19:21;;;;;;;80.57;17.70;;;1.10;99.90;;;;;;5066553;28;20118;-74
2023/12/07 05:21:47;;;;;;;69.85;14.82;;;1.10;99.90;;;;;;5066448;28;20025;-73
2023/12/07 05:24:13;;;;;;;65.20;16.10;;;1.20;99.90;;;;;;5066521;28;20453;-73
2023/12/07 05:26:46;;;;;;;77.47;18.02;;;1.30;99.90;;;;;;5066130;28;20456;-73
2023/12/07 05:29:12;;;;;;;157.18;18.92;;;1.30;99.90;;;;;;5066824;28;20094;-73
2023/12/07 05:31:37;;;;;;;165.25;19.67;;;1.30;99.90;;;;;;5066262;28;20016;-73
2023/12/07 05:34:03;;;;;;;208.43;20.52;;;1.30;99.90;;;;;;5066507;28;20035;-73
2023/12/07 05:36:29;;;;;;;292.83;28.15;;;1.30;99.90;;;;;;5065905;28;20024;-73
2023/12/07 05:38:55;;;;;;;281.58;26.23;;;1.30;99.90;;;;;;5040926;28;20087;-73
2023/12/07 05:41:21;;;;;;;181.65;24.08;;;1.20;99.90;;;;;;5073075;28;20051;-74
2023/12/07 05:43:46;;;;;;;157.82;19.55;;;1.10;99.90;;;;;;5072053;28;20016;-74
2023/12/07 05:46:12;;;;;;;254.35;25.88;;;1.10;99.90;;;;;;5082461;28;20621;-73
2023/12/07 05:48:38;;;;;;;180.18;22.17;;;1.10;99.90;;;;;;5072770;28;20039;-73
2023/12/07 05:51:04;;;;;;;168.88;21.13;;;1.10;99.90;;;;;;5053918;28;20024;-73
2023/12/07 05:53:32;;;;;;;122.20;22.13;;;1.10;99.90;;;;;;5074747;28;20056;-73
2023/12/07 05:55:58;;;;;;;57.80;18.00;;;1.10;99.90;;;;;;5052582;28;20059;-74
2023/12/07 05:58:24;;;;;;;109.55;19.75;;;1.10;99.90;;;;;;5076487;28;20052;-73
2023/12/07 06:00:50;;;;;;;186.45;23.45;;;1.10;99.90;;;;;;5080191;28;20456;-74
2023/12/07 06:03:15;;;;;;;192.60;24.02;;;1.10;99.90;;;;;;5074345;28;20027;-73
2023/12/07 06:05:41;;;;;;;68.03;18.13;;;1.10;99.90;;;;;;5059036;28;20039;-73
2023/12/07 06:08:07;;;;;;;243.93;26.83;;;1.10;99.90;;;;;;5084290;28;20019;-73
2023/12/07 06:10:33;;;;;;;256.88;27.92;;;1.00;99.90;;;;;;5081761;28;20123;-73
2023/12/07 06:13:00;;;;;;;158.93;23.25;;;1.00;99.90;;;;;;5075408;28;20020;-73
2023/12/07 06:15:27;;;;;;;245.90;24.80;;;0.90;99.90;;;;;;5079773;28;20169;-73
2023/12/07 06:17:57;;;;;;;201.80;23.25;;;0.90;99.90;;;;;;5083549;28;20388;-73
2023/12/07 06:20:23;;;;;;;229.93;26.27;;;0.90;99.90;;;;;;5069734;28;20481;-71
2023/12/07 06:22:48;;;;;;;310.02;31.27;;;0.90;99.90;;;;;;5075871;28;20026;-71
2023/12/07 06:25:14;;;;;;;216.57;26.58;;;0.90;99.90;;;;;;5075585;28;20800;-71
2023/12/07 06:27:40;;;;;;;193.20;24.13;;;0.80;99.90;;;;;;5071193;28;20028;-72
2023/12/07 06:30:06;;;;;;;255.98;27.15;;;0.90;99.90;;;;;;5083453;28;20035;-71
2023/12/07 06:32:33;;;;;;;415.25;35.45;;;0.80;99.90;;;;;;5080118;28;20024;-71
2023/12/07 06:35:00;;;;;;;185.50;23.92;;;0.80;99.90;;;;;;5072344;28;20115;-71
2023/12/07 06:37:26;;;;;;;163.85;24.63;;;0.80;99.90;;;;;;5050820;28;20029;-72
2023/12/07 06:39:52;;;;;;;382.98;37.85;;;0.80;99.90;;;;;;5055591;28;20025;-72
2023/12/07 06:42:18;;;;;;;290.98;29.70;;;0.80;99.90;;;;;;5081880;28;20031;-71
2023/12/07 06:44:49;;;;;;;271.80;27.58;;;0.80;99.90;;;;;;5082340;28;20016;-71
2023/12/07 06:47:15;;;;;;;362.58;34.35;;;0.80;99.90;;;;;;5052314;28;20025;-72
2023/12/07 06:49:40;;;;;;;162.85;25.40;;;0.80;99.90;;;;;;5077596;28;20039;-72
2023/12/07 06:52:06;;;;;;;191.75;26.38;;;0.70;99.90;;;;;;5067786;28;20020;-72
2023/12/07 06:54:32;;;;;;;162.07;25.95;;;0.70;99.90;;;;;;5070126;28;20371;-72
2023/12/07 06:56:58;;;;;;;228.85;26.05;;;0.70;99.90;;;;;;5078606;28;20083;-72
2023/12/07 06:59:24;;;;;;;242.00;35.53;;;0.70;99.90;;;;;;5068658;28;20041;-72
2023/12/07 07:01:49;;;;;;;279.95;29.40;;;0.70;99.90;;;;;;5050056;28;20036;-72
2023/12/07 07:04:16;;;;;;;259.92;31.17;;;0.70;99.90;;;;;;5068080;28;20490;-73
2023/12/07 07:06:42;;;;;;;244.52;30.02;;;0.70;99.90;;;;;;5067809;28;20111;-72
2023/12/07 07:09:08;;;;;;;392.73;41.72;;;0.70;99.90;;;;;;5067955;28;20107;-72
2023/12/07 07:11:34;;;;;;;271.58;30.98;;;0.70;99.90;;;;;;5067906;28;20393;-72
2023/12/07 07:14:00;;;;;;;260.35;32.05;;;0.60;99.90;;;;;;5080877;28;20032;-72
2023/12/07 07:16:25;;;;;;;305.77;33.28;;;0.60;99.90;;;;;;5066816;28;20090;-73
2023/12/07 07:18:51;;;;;;;291.30;33.55;;;0.60;99.90;;;;;;5056807;28;20512;-72
2023/12/07 07:21:17;;;;;;;338.35;33.60;;;0.60;99.90;;;;;;5070788;28;20114;-72
2023/12/07 07:23:43;;;;;;;222.10;29.50;;;0.60;99.90;;;;;;5079975;28;20071;-72
2023/12/07 07:26:08;;;;;;;197.48;27.38;;;0.60;99.90;;;;;;5082883;28;20016;-72
2023/12/07 07:28:34;;;;;;;199.48;28.13;;;0.60;99.90;;;;;;5074172;28;20698;-72
2023/12/07 07:31:00;;;;;;;206.68;27.90;;;0.60;99.90;;;;;;5058427;28;20060;-72
2023/12/07 07:33:26;;;;;;;113.25;20.90;;;0.60;99.90;;;;;;5082201;28;20521;-72
2023/12/07 07:35:51;;;;;;;239.73;30.85;;;0.70;99.90;;;;;;5078266;28;20735;-72
2023/12/07 07:38:17;;;;;;;235.05;29.88;;;0.70;99.90;;;;;;5069319;28;20028;-72
2023/12/07 07:40:45;;;;;;;338.00;34.92;;;0.80;99.90;;;;;;5064125;28;20052;-72
2023/12/07 07:43:11;;;;;;;299.85;31.98;;;0.70;99.90;;;;;;5073892;28;20461;-72
2023/12/07 07:45:36;;;;;;;232.85;27.80;;;0.70;99.90;;;;;;5070052;28;20501;-72
2023/12/07 07:48:02;;;;;;;281.67;32.97;;;0.70;99.90;;;;;;5067499;28;20028;-72
2023/12/07 07:50:28;;;;;;;244.48;29.88;;;0.70;99.90;;;;;;5049708;28;20417;-72
2023/12/07 07:52:54;;;;;;;221.90;27.17;;;0.70;99.90;;;;;;5067343;28;20024;-72
2023/12/07 07:55:20;;;;;;;196.73;27.27;;;0.70;99.90;;;;;;5049744;28;20044;-72
2023/12/07 07:57:46;;;;;;;221.15;28.75;;;0.70;99.90;;;;;;5067016;28;20075;-72
2023/12/07 08:00:13;;;;;;;205.85;31.70;;;0.70;99.90;;;;;;5049682;28;20047;-73
2023/12/07 08:02:38;;;;;;;220.85;28.23;;;0.70;99.90;;;;;;5066098;28;20025;-72
2023/12/07 08:05:04;;;;;;;238.35;27.50;;;0.70;99.90;;;;;;5067495;28;20057;-72
2023/12/07 08:07:30;;;;;;;158.07;26.33;;;0.70;99.90;;;;;;5067266;28;20389;-72
2023/12/07 08:09:55;;;;;;;293.67;33.55;;;0.80;99.90;;;;;;5067456;28;20020;-72
2023/12/07 08:12:24;;;;;;;222.73;31.42;;;0.70;99.90;;;;;;5066769;28;20032;-72
2023/12/07 08:14:50;;;;;;;202.30;26.08;;;0.70;99.90;;;;;;5066184;28;20489;-73
2023/12/07 08:17:16;;;;;;;179.48;29.60;;;0.70;99.90;;;;;;5047479;28;20035;-72
2023/12/07 08:19:42;;;;;;;231.55;32.65;;;0.70;99.90;;;;;;5077143;28;20016;-73
2023/12/07 08:22:08;;;;;;;192.30;30.35;;;0.70;99.90;;;;;;5075103;28;20028;-73
2023/12/07 08:24:34;;;;;;;144.95;26.55;;;0.70;99.90;;;;;;5071578;28;20024;-73
2023/12/07 08:27:00;;;;;;;148.13;26.30;;;0.70;99.90;;;;;;5060158;28;20028;-73
2023/12/07 08:29:25;;;;;;;141.80;28.25;;;0.80;99.90;;;;;;5079499;28;20034;-73
2023/12/07 08:31:52;;;;;;;186.48;31.23;;;0.80;99.90;;;;;;5073051;28;20058;-72
2023/12/07 08:34:18;;;;;;;174.90;28.05;;;0.80;99.90;;;;;;5075778;28;20082;-73
2023/12/07 08:36:43;;;;;;;172.07;27.70;;;0.90;99.90;;;;;;5081079;28;20017;-73
2023/12/07 08:39:09;;;;;;;102.47;24.83;;;0.90;99.90;;;;;;5057403;28;20052;-73
2023/12/07 08:41:36;;;;;;;111.88;21.77;;;0.90;99.90;;;;;;5076373;28;20105;-73
2023/12/07 08:44:02;;;;;;;165.13;28.35;;;0.90;99.90;;;;;;5074148;28;20024;-73
2023/12/07 08:46:28;;;;;;;166.38;26.65;;;0.90;99.90;;;;;;5083211;28;20031;-72
2023/12/07 08:48:53;;;;;;;267.45;30.80;;;0.90;99.90;;;;;;5072474;28;20028;-73
2023/12/07 08:51:19;;;;;;;167.02;25.35;;;0.90;99.90;;;;;;5079556;28;20486;-73
2023/12/07 08:53:46;;;;;;;198.98;28.63;;;0.80;99.90;;;;;;5080042;28;20481;-73
2023/12/07 08:56:12;;;;;;;148.55;24.50;;;0.80;99.90;;;;;;5050126;28;20028;-73
2023/12/07 08:58:38;;;;;;;177.38;26.63;;;0.80;99.90;;;;;;5062689;28;20036;-73
2023/12/07 09:01:05;;;;;;;144.90;24.00;;;0.80;99.90;;;;;;5069195;28;20025;-73
2023/12/07 09:03:31;;;;;;;197.45;23.48;;;0.80;99.90;;;;;;5066363;28;20059;-72
2023/12/07 09:05:58;;;;;;;193.25;24.02;;;0.80;99.90;;;;;;5067424;28;20055;-73
2023/12/07 09:08:23;;;;;;;133.07;21.40;;;0.80;99.90;;;;;;5059208;28;20039;-72
2023/12/07 09:10:51;;;;;;;213.43;26.80;;;0.80;99.90;;;;;;5047874;28;20017;-72
2023/12/07 09:13:17;;;;;;;211.45;25.35;;;0.80;99.90;;;;;;5066487;28;20024;-72
2023/12/07 09:15:43;;;;;;;133.40;21.73;;;0.80;99.90;;;;;;5063617;28;20059;-73
2023/12/07 09:18:10;;;;;;;188.55;24.70;;;0.70;99.90;;;;;;5062311;28;20075;-73
2023/12/07 09:20:37;;;;;;;135.85;23.45;;;0.70;99.90;;;;;;5077287;28;20028;-73
2023/12/07 09:23:04;;;;;;;120.05;20.73;;;0.80;99.90;;;;;;5072050;28;20025;-72
2023/12/07 09:25:30;;;;;;;156.77;23.00;;;0.80;99.90;;;;;;5078220;28;20043;-73
2023/12/07 09:27:56;;;;;;;120.63;20.08;;;0.80;99.90;;;;;;5063406;28;20032;-73
2023/12/07 09:30:22;;;;;;;175.35;21.98;;;0.80;99.90;;;;;;5079935;28;20032;-73
2023/12/07 09:32:48;;;;;;;111.43;18.55;;;0.80;99.90;;;;;;5079018;28;20024;-73
2023/12/07 09:35:16;;;;;;;140.23;22.58;;;0.80;99.90;;;;;;5072376;28;20024;-73
2023/12/07 09:37:42;;;;;;;90.93;17.90;;;0.90;99.90;;;;;;5075064;28;20024;-73
2023/12/07 09:40:07;;;;;;;163.30;21.38;;;0.90;99.90;;;;;;5068423;28;20048;-72
2023/12/07 09:42:33;;;;;;;83.82;17.95;;;0.90;99.90;;;;;;5079301;28;20024;-73
2023/12/07 09:44:59;;;;;;;101.05;19.33;;;0.90;99.90;;;;;;5076391;28;20055;-73
2023/12/07 09:47:30;;;;;;;128.57;19.70;;;0.90;99.90;;;;;;5076000;28;20104;-72
2023/12/07 09:49:57;;;;;;;98.45;17.13;;;0.90;99.90;;;;;;5080127;28;20025;-73
2023/12/07 09:52:24;;;;;;;95.65;16.92;;;0.90;99.90;;;;;;5083758;28;20049;-73
2023/12/07 09:54:51;;;;;;;90.78;17.55;;;0.90;99.90;;;;;;5078633;28;20557;-73
2023/12/07 09:57:17;;;;;;;87.93;19.02;;;0.90;99.90;;;;;;5056365;28;20036;-72
2023/12/07 09:59:53;;;;;;;74.82;16.42;;;0.90;99.90;;;;;;5069795;28;20029;-73
2023/12/07 10:02:18;;;;;;;116.28;19.08;;;0.90;99.90;;;;;;5083705;28;20535;-73
2023/12/07 10:04:44;;;;;;;92.45;19.92;;;0.90;99.90;;;;;;5061642;28;20145;-73
2023/12/07 10:07:10;;;;;;;86.88;19.88;;;0.90;99.90;;;;;;5078117;28;20025;-73
2023/12/07 10:09:40;;;;;;;72.50;17.13;;;0.90;99.90;;;;;;5055418;28;20495;-73
2023/12/07 10:12:06;;;;;;;81.00;18.80;;;0.90;99.90;;;;;;5079299;28;20064;-73
2023/12/07 10:14:33;;;;;;;74.55;16.73;;;0.80;99.90;;;;;;5051857;28;20118;-73
2023/12/07 10:16:59;;;;;;;73.30;16.75;;;0.90;99.90;;;;;;5081557;28;20046;-72
2023/12/07 10:19:27;;;;;;;75.13;16.70;;;0.90;99.90;;;;;;5068409;28;20037;-72
2023/12/07 10:21:53;;;;;;;68.88;14.13;;;0.90;99.90;;;;;;5051838;28;20144;-72
2023/12/07 10:24:21;;;;;;;77.72;16.52;;;0.90;99.90;;;;;;5083194;28;20016;-73
2023/12/07 10:26:48;;;;;;;93.63;16.42;;;1.00;99.90;;;;;;5074813;28;20016;-73
2023/12/07 10:29:14;;;;;;;81.55;16.42;;;1.00;99.90;;;;;;5077723;28;20163;-73
2023/12/07 10:31:39;;;;;;;105.68;15.73;;;1.10;99.90;;;;;;5071936;28;20071;-72
2023/12/07 10:34:05;;;;;;;84.65;16.85;;;1.00;99.90;;;;;;5069001;28;20500;-73
2023/12/07 10:36:32;;;;;;;87.68;15.52;;;1.10;99.90;;;;;;5069553;28;20111;-72
2023/12/07 10:38:58;;;;;;;108.47;18.05;;;1.10;99.90;;;;;;5050779;28;20063;-73
2023/12/07 10:41:24;;;;;;;110.20;17.92;;;1.20;99.90;;;;;;5068780;28;20067;-73
2023/12/07 10:44:00;;;;;;;129.05;18.83;;;1.20;99.90;;;;;;5071742;28;20041;-72
2023/12/07 10:46:27;;;;;;;113.45;18.35;;;1.20;99.90;;;;;;5072954;28;20020;-72
2023/12/07 10:49:03;;;;;;;132.80;19.90;;;1.30;99.90;;;;;;5075685;28;20056;-72
2023/12/07 10:51:45;;;;;;;125.82;18.70;;;1.30;99.90;;;;;;5062073;28;20473;-72
2023/12/07 10:54:16;;;;;;;115.25;14.30;;;1.30;99.90;;;;;;5083451;28;20020;-72
2023/12/07 10:56:45;;;;;;;134.40;19.10;;;1.30;99.90;;;;;;5069147;28;20029;-73
2023/12/07 10:59:13;;;;;;;128.88;19.20;;;1.40;99.90;;;;;;5052725;28;20433;-72
2023/12/07 11:01:39;;;;;;;158.20;21.42;;;1.40;99.90;;;;;;5078026;28;20048;-72
2023/12/07 11:04:06;;;;;;;137.18;21.80;;;1.50;99.90;;;;;;5075169;28;20119;-72
2023/12/07 11:06:34;;;;;;;141.10;19.85;;;1.50;99.90;;;;;;5082609;28;20013;-73
2023/12/07 11:09:05;;;;;;;144.23;21.63;;;1.50;99.90;;;;;;5081941;28;20043;-72
2023/12/07 11:11:33;;;;;;;138.02;22.92;;;1.50;99.90;;;;;;5073135;28;20053;-72
2023/12/07 11:14:00;;;;;;;140.60;22.17;;;1.60;99.90;;;;;;5076543;28;20146;-73
2023/12/07 11:16:34;;;;;;;149.60;23.27;;;1.60;99.90;;;;;;5072524;28;20493;-73
2023/12/07 11:19:00;;;;;;;161.77;22.40;;;1.60;99.90;;;;;;5077129;28;20090;-73
2023/12/07 11:21:26;;;;;;;155.68;23.42;;;1.70;99.90;;;;;;5086037;28;20016;-73
2023/12/07 11:23:55;;;;;;;132.15;22.17;;;1.80;99.90;;;;;;5079003;28;20768;-72
2023/12/07 11:26:23;;;;;;;135.38;25.13;;;1.80;99.90;;;;;;5082955;28;20099;-72
2023/12/07 11:28:49;;;;;;;141.15;24.52;;;1.90;99.90;;;;;;5076247;28;20031;-73
2023/12/07 11:31:16;;;;;;;127.55;27.05;;;1.90;99.90;;;;;;5056295;28;20082;-73
2023/12/07 11:33:42;;;;;;;118.75;25.98;;;1.90;99.90;;;;;;5081942;28;20029;-72
2023/12/07 11:36:12;;;;;;;122.60;27.77;;;2.00;99.90;;;;;;5080914;28;20024;-72
2023/12/07 11:38:38;;;;;;;113.20;27.25;;;2.10;99.90;;;;;;5073642;28;20126;-72
2023/12/07 11:41:04;;;;;;;101.18;26.85;;;2.10;99.90;;;;;;5076789;28;20156;-72
2023/12/07 11:43:33;;;;;;;115.82;26.92;;;2.10;99.90;;;;;;5082040;28;20534;-72
2023/12/07 11:45:59;;;;;;;112.63;28.60;;;2.20;99.90;;;;;;5073573;28;20023;-72
2023/12/07 11:48:25;;;;;;;119.70;26.33;;;2.20;99.90;;;;;;5076082;28;20028;-72
2023/12/07 11:50:56;;;;;;;118.45;25.98;;;2.20;99.90;;;;;;5082749;28;20024;-73
2023/12/07 11:53:32;;;;;;;115.25;25.50;;;2.30;99.90;;;;;;5074785;28;20513;-72
2023/12/07 11:55:59;;;;;;;124.60;28.73;;;2.30;99.90;;;;;;5078196;28;20413;-72
2023/12/07 11:58:26;;;;;;;90.68;25.27;;;2.40;99.90;;;;;;5067392;28;20560;-73
2023/12/07 12:00:53;;;;;;;110.05;25.67;;;2.40;99.90;;;;;;5074455;28;20036;-72
2023/12/07 12:03:20;;;;;;;110.75;23.27;;;2.40;99.90;;;;;;5066681;28;20104;-72
2023/12/07 12:05:46;;;;;;;100.78;24.95;;;2.50;99.90;;;;;;5067301;28;20055;-72
2023/12/07 12:08:12;;;;;;;90.32;25.10;;;2.50;99.90;;;;;;5048348;28;20435;-73
2023/12/07 12:10:39;;;;;;;107.45;26.08;;;2.50;99.90;;;;;;5067021;28;20055;-72
2023/12/07 12:13:05;;;;;;;100.50;25.17;;;2.50;99.90;;;;;;5076969;28;20429;-72
2023/12/07 12:15:31;;;;;;;95.90;26.13;;;2.60;99.90;;;;;;5062353;28;20111;-72
2023/12/07 12:17:58;;;;;;;78.93;25.10;;;2.60;99.90;;;;;;5072028;28;20024;-72
2023/12/07 12:20:25;;;;;;;94.60;25.67;;;2.70;99.90;;;;;;5078380;28;20087;-72
2023/12/07 12:22:54;;;;;;;105.45;25.20;;;2.70;99.90;;;;;;5081257;28;20034;-72
2023/12/07 12:25:25;;;;;;;75.75;22.38;;;2.70;99.90;;;;;;5067292;28;20021;-72
2023/12/07 12:28:09;;;;;;;82.47;24.35;;;2.70;99.90;;;;;;5079945;28;20028;-72
2023/12/07 12:30:36;;;;;;;77.00;23.25;;;2.70;99.90;;;;;;5075085;28;20032;-72